Shinkomaru No.8 — JK5142 — position and weather

sailwx.info

Track history (hours):
 
Tides and Currents Weather Stations Pressure Air Temp Water Temp Dewpoint Dewpoint Depression Visibility Wind Speed Wind Dir Waves Ship Positions

Shinkomaru No.8

Last reported at 2016-Feb-11 07:05 UTC. Time now 2016-Feb-13 04:39 UTC.
Position N 34°38' E 135°00'.

Length 61 m; draft 4.4 m.

Type: Tanker. MMSI: 431400035.

Date/timePositionNaut miles runAvg speedWind from/ knotsBaromVisibWave heightAir tempDewpointWater temp
2016-Feb-11 07:05N 34°38' E 135°00'3 6.7
2016-Feb-11 06:33N 34°36' E 135°04'9 9.1
2016-Feb-11 05:33N 34°27' E 135°05'12 9.8
2016-Feb-11 04:22N 34°15' E 135°03'3 3.9
2016-Feb-11 03:29N 34°14' E 135°07'0 0.0
2016-Feb-11 02:33N 34°14' E 135°07'0 0.0
2016-Feb-11 01:33N 34°14' E 135°07'0 0.0
2016-Feb-11 00:30N 34°14' E 135°07'0 0.0
2016-Feb-10 23:34N 34°14' E 135°07'0 0.2
2016-Feb-10 22:34N 34°14' E 135°07'3 2.9
2016-Feb-10 21:33N 34°14' E 135°04'1010.2
2016-Feb-10 20:33N 34°04' E 135°02'  
2016-Feb-08 10:26N 34°06' E 134°60'2211.4
2016-Feb-08 08:30N 34°28' E 135°02'10 8.1
2016-Feb-08 07:19N 34°37' E 134°56'  
2016-Feb-02 10:04N 34°37' E 135°02'5 9.4
2016-Feb-02 09:33N 34°33' E 135°05'1110.6
2016-Feb-02 08:33N 34°22' E 135°04'8 8.4
2016-Feb-02 07:33N 34°14' E 135°06'1 0.6
2016-Feb-02 06:32N 34°14' E 135°07'0 0.0
2016-Feb-02 05:31N 34°14' E 135°07'0 0.0
2016-Feb-02 04:31N 34°14' E 135°07'0 0.0
2016-Feb-02 03:29N 34°14' E 135°07'0 0.0
2016-Feb-02 02:33N 34°14' E 135°07'1 1.4
2016-Feb-02 01:33N 34°14' E 135°05'10 9.7
2016-Feb-02 00:30N 34°12' E 134°53'  
Track history (hours):
 
Tides and Currents Weather Stations Pressure Air Temp Water Temp Dewpoint Dewpoint Depression Visibility Wind Speed Wind Dir Waves Ship Positions

Shinkomaru No.8

Last reported at 2016-Feb-11 07:05 UTC. Time now 2016-Feb-13 04:39 UTC.
Position N 34°38' E 135°00'.

Length 61 m; draft 4.4 m.

Type: Tanker. MMSI: 431400035.

Date/timePositionNaut miles runAvg speedWind from/ knotsBaromVisibWave heightAir tempDewpointWater temp
2016-Feb-11 07:05N 34°38' E 135°00'3 6.7
2016-Feb-11 06:33N 34°36' E 135°04'9 9.1
2016-Feb-11 05:33N 34°27' E 135°05'12 9.8
2016-Feb-11 04:22N 34°15' E 135°03'3 3.9
2016-Feb-11 03:29N 34°14' E 135°07'0 0.0
2016-Feb-11 02:33N 34°14' E 135°07'0 0.0
2016-Feb-11 01:33N 34°14' E 135°07'0 0.0
2016-Feb-11 00:30N 34°14' E 135°07'0 0.0
2016-Feb-10 23:34N 34°14' E 135°07'0 0.2
2016-Feb-10 22:34N 34°14' E 135°07'3 2.9
2016-Feb-10 21:33N 34°14' E 135°04'1010.2
2016-Feb-10 20:33N 34°04' E 135°02'  
2016-Feb-08 10:26N 34°06' E 134°60'2211.4
2016-Feb-08 08:30N 34°28' E 135°02'10 8.1
2016-Feb-08 07:19N 34°37' E 134°56'  
2016-Feb-02 10:04N 34°37' E 135°02'5 9.4
2016-Feb-02 09:33N 34°33' E 135°05'1110.6
2016-Feb-02 08:33N 34°22' E 135°04'8 8.4
2016-Feb-02 07:33N 34°14' E 135°06'1 0.6
2016-Feb-02 06:32N 34°14' E 135°07'0 0.0
2016-Feb-02 05:31N 34°14' E 135°07'0 0.0
2016-Feb-02 04:31N 34°14' E 135°07'0 0.0
2016-Feb-02 03:29N 34°14' E 135°07'0 0.0
2016-Feb-02 02:33N 34°14' E 135°07'1 1.4
2016-Feb-02 01:33N 34°14' E 135°05'10 9.7
2016-Feb-02 00:30N 34°12' E 134°53'  

Dump ship's entire track history